sensor_id;sensor_type;location;lat;lon;timestamp;pressure;altitude;pressure_sealevel;temperature;humidity
43488;BME280;29078;41.932;25.554;2022-12-18T00:03:52;100135.78;;;11.76;79.33
43488;BME280;29078;41.932;25.554;2022-12-18T00:06:21;100192.81;;;12.03;79.40
43488;BME280;29078;41.932;25.554;2022-12-18T00:08:47;100200.91;;;12.02;79.61
43488;BME280;29078;41.932;25.554;2022-12-18T00:11:15;100195.44;;;12.03;80.07
43488;BME280;29078;41.932;25.554;2022-12-18T00:13:41;100193.63;;;12.04;80.30
43488;BME280;29078;41.932;25.554;2022-12-18T00:16:10;100126.78;;;11.55;79.84
43488;BME280;29078;41.932;25.554;2022-12-18T00:18:35;100189.16;;;12.04;79.64
43488;BME280;29078;41.932;25.554;2022-12-18T00:21:04;100126.25;;;11.59;79.65
43488;BME280;29078;41.932;25.554;2022-12-18T00:23:30;100159.63;;;11.68;80.29
43488;BME280;29078;41.932;25.554;2022-12-18T00:26:00;100167.72;;;11.75;79.96
43488;BME280;29078;41.932;25.554;2022-12-18T00:28:26;100190.53;;;11.92;80.15
43488;BME280;29078;41.932;25.554;2022-12-18T00:33:27;100139.31;;;11.61;79.64
43488;BME280;29078;41.932;25.554;2022-12-18T00:35:52;100124.97;;;11.55;80.03
43488;BME280;29078;41.932;25.554;2022-12-18T00:38:18;100135.72;;;11.54;80.38
43488;BME280;29078;41.932;25.554;2022-12-18T00:40:43;100166.41;;;11.71;80.64
43488;BME280;29078;41.932;25.554;2022-12-18T00:43:09;100228.69;;;12.06;80.07
43488;BME280;29078;41.932;25.554;2022-12-18T00:45:34;100145.97;;;11.49;80.64
43488;BME280;29078;41.932;25.554;2022-12-18T00:47:59;100161.78;;;11.65;80.33
43488;BME280;29078;41.932;25.554;2022-12-18T00:50:25;100177.16;;;11.77;80.35
43488;BME280;29078;41.932;25.554;2022-12-18T00:52:51;100128.13;;;11.42;80.59
43488;BME280;29078;41.932;25.554;2022-12-18T00:55:17;100235.97;;;12.04;80.72
43488;BME280;29078;41.932;25.554;2022-12-18T00:57:43;100208.06;;;11.85;80.56
43488;BME280;29078;41.932;25.554;2022-12-18T01:00:13;100185.91;;;11.70;80.38
43488;BME280;29078;41.932;25.554;2022-12-18T01:02:39;100239.63;;;12.03;80.33
43488;BME280;29078;41.932;25.554;2022-12-18T01:05:05;100134.75;;;11.38;80.47
43488;BME280;29078;41.932;25.554;2022-12-18T01:07:31;100246.91;;;12.01;80.29
43488;BME280;29078;41.932;25.554;2022-12-18T01:09:57;100204.44;;;11.78;80.67
43488;BME280;29078;41.932;25.554;2022-12-18T01:12:22;100262.28;;;12.05;80.22
43488;BME280;29078;41.932;25.554;2022-12-18T01:14:48;100198.81;;;11.65;80.75
43488;BME280;29078;41.932;25.554;2022-12-18T01:17:13;100168.28;;;11.38;80.29
43488;BME280;29078;41.932;25.554;2022-12-18T01:19:39;100257.97;;;12.04;80.28
43488;BME280;29078;41.932;25.554;2022-12-18T01:22:05;100178.84;;;11.54;80.77
43488;BME280;29078;41.932;25.554;2022-12-18T01:24:30;100161.31;;;11.53;80.21
43488;BME280;29078;41.932;25.554;2022-12-18T01:26:55;100231.38;;;11.90;80.72
43488;BME280;29078;41.932;25.554;2022-12-18T01:29:22;100254.81;;;12.09;80.82
43488;BME280;29078;41.932;25.554;2022-12-18T01:31:48;100192.69;;;11.64;80.71
43488;BME280;29078;41.932;25.554;2022-12-18T01:34:13;100181.34;;;11.48;80.38
43488;BME280;29078;41.932;25.554;2022-12-18T01:36:39;100226.25;;;11.80;80.39
43488;BME280;29078;41.932;25.554;2022-12-18T01:39:07;100135.09;;;11.35;80.36
43488;BME280;29078;41.932;25.554;2022-12-18T01:41:35;100243.41;;;12.08;80.74
43488;BME280;29078;41.932;25.554;2022-12-18T01:50:22;100218.28;;;12.04;80.62
43488;BME280;29078;41.932;25.554;2022-12-18T01:52:54;100227.22;;;12.03;80.56
43488;BME280;29078;41.932;25.554;2022-12-18T01:55:25;100220.28;;;12.02;80.60
43488;BME280;29078;41.932;25.554;2022-12-18T01:57:53;100224.75;;;12.02;80.30
43488;BME280;29078;41.932;25.554;2022-12-18T02:00:21;100223.91;;;12.01;81.07
43488;BME280;29078;41.932;25.554;2022-12-18T02:02:48;100209.84;;;12.01;80.81
43488;BME280;29078;41.932;25.554;2022-12-18T02:05:17;100211.03;;;11.98;80.90
43488;BME280;29078;41.932;25.554;2022-12-18T02:08:09;100213.50;;;12.00;80.38
43488;BME280;29078;41.932;25.554;2022-12-18T02:10:41;100228.88;;;11.88;81.54
43488;BME280;29078;41.932;25.554;2022-12-18T02:13:56;100231.53;;;11.88;81.28
43488;BME280;29078;41.932;25.554;2022-12-18T02:18:58;100234.84;;;11.98;81.11
43488;BME280;29078;41.932;25.554;2022-12-18T02:26:59;100255.50;;;12.03;81.73
43488;BME280;29078;41.932;25.554;2022-12-18T02:29:50;100220.31;;;11.78;81.45
43488;BME280;29078;41.932;25.554;2022-12-18T02:32:27;100266.88;;;12.12;81.19
43488;BME280;29078;41.932;25.554;2022-12-18T02:34:55;100254.97;;;12.16;81.29
43488;BME280;29078;41.932;25.554;2022-12-18T02:37:22;100261.56;;;12.20;81.10
43488;BME280;29078;41.932;25.554;2022-12-18T02:39:49;100203.41;;;11.87;81.47
43488;BME280;29078;41.932;25.554;2022-12-18T02:42:16;100248.19;;;12.13;81.06
43488;BME280;29078;41.932;25.554;2022-12-18T02:44:47;100259.09;;;12.18;81.34
43488;BME280;29078;41.932;25.554;2022-12-18T02:47:15;100248.69;;;12.08;81.31
43488;BME280;29078;41.932;25.554;2022-12-18T03:01:14;100283.22;;;12.23;81.29
43488;BME280;29078;41.932;25.554;2022-12-18T03:03:47;100260.13;;;12.09;81.43
43488;BME280;29078;41.932;25.554;2022-12-18T03:06:22;100281.91;;;12.27;81.32
43488;BME280;29078;41.932;25.554;2022-12-18T03:08:52;100282.72;;;12.28;81.02
43488;BME280;29078;41.932;25.554;2022-12-18T03:11:19;100215.66;;;11.88;81.11
43488;BME280;29078;41.932;25.554;2022-12-18T03:14:06;100293.31;;;12.28;81.23
43488;BME280;29078;41.932;25.554;2022-12-18T03:16:34;100267.03;;;12.18;81.35
43488;BME280;29078;41.932;25.554;2022-12-18T03:19:12;100246.25;;;11.99;81.22
43488;BME280;29078;41.932;25.554;2022-12-18T03:21:43;100190.06;;;11.64;81.37
43488;BME280;29078;41.932;25.554;2022-12-18T03:24:11;100256.31;;;12.03;81.24
43488;BME280;29078;41.932;25.554;2022-12-18T03:26:38;100219.13;;;11.72;81.51
43488;BME280;29078;41.932;25.554;2022-12-18T03:29:13;100275.84;;;12.02;81.52
43488;BME280;29078;41.932;25.554;2022-12-18T03:31:47;100263.59;;;12.01;81.32
43488;BME280;29078;41.932;25.554;2022-12-18T03:34:21;100287.06;;;12.13;81.56
43488;BME280;29078;41.932;25.554;2022-12-18T03:36:49;100323.63;;;12.17;81.84
43488;BME280;29078;41.932;25.554;2022-12-18T03:39:14;100183.84;;;11.33;81.83
43488;BME280;29078;41.932;25.554;2022-12-18T03:47:34;100317.34;;;12.10;82.01
43488;BME280;29078;41.932;25.554;2022-12-18T03:50:12;100268.41;;;11.73;81.88
43488;BME280;29078;41.932;25.554;2022-12-18T03:53:04;100336.06;;;12.08;81.77
43488;BME280;29078;41.932;25.554;2022-12-18T03:55:32;100263.28;;;11.72;81.92
43488;BME280;29078;41.932;25.554;2022-12-18T03:58:01;100313.75;;;11.95;81.76
43488;BME280;29078;41.932;25.554;2022-12-18T04:00:29;100328.63;;;12.04;81.87
43488;BME280;29078;41.932;25.554;2022-12-18T04:02:57;100260.16;;;11.60;81.64
43488;BME280;29078;41.932;25.554;2022-12-18T04:05:26;100291.75;;;11.78;81.67
43488;BME280;29078;41.932;25.554;2022-12-18T04:07:54;100340.84;;;12.05;82.13
43488;BME280;29078;41.932;25.554;2022-12-18T04:10:20;100274.53;;;11.66;81.72
43488;BME280;29078;41.932;25.554;2022-12-18T04:12:45;100288.75;;;11.57;81.62
43488;BME280;29078;41.932;25.554;2022-12-18T04:15:12;100344.81;;;12.09;81.73
43488;BME280;29078;41.932;25.554;2022-12-18T04:17:38;100358.72;;;12.11;82.16
43488;BME280;29078;41.932;25.554;2022-12-18T04:20:07;100251.41;;;11.43;81.92
43488;BME280;29078;41.932;25.554;2022-12-18T04:22:32;100271.72;;;11.59;82.09
43488;BME280;29078;41.932;25.554;2022-12-18T04:24:58;100354.91;;;12.14;82.24
43488;BME280;29078;41.932;25.554;2022-12-18T04:27:23;100256.69;;;11.52;82.04
43488;BME280;29078;41.932;25.554;2022-12-18T04:29:48;100301.34;;;11.79;82.01
43488;BME280;29078;41.932;25.554;2022-12-18T04:32:14;100365.16;;;12.17;82.28
43488;BME280;29078;41.932;25.554;2022-12-18T04:34:39;100320.50;;;11.81;81.91
43488;BME280;29078;41.932;25.554;2022-12-18T04:37:05;100365.81;;;12.19;82.22
43488;BME280;29078;41.932;25.554;2022-12-18T04:39:30;100365.66;;;12.20;82.02
43488;BME280;29078;41.932;25.554;2022-12-18T04:41:55;100364.47;;;12.23;82.25
43488;BME280;29078;41.932;25.554;2022-12-18T04:44:21;100356.38;;;12.16;82.14
43488;BME280;29078;41.932;25.554;2022-12-18T04:46:46;100323.50;;;11.94;82.25
43488;BME280;29078;41.932;25.554;2022-12-18T04:49:11;100342.34;;;12.07;82.12
43488;BME280;29078;41.932;25.554;2022-12-18T04:51:37;100326.47;;;11.99;81.64
43488;BME280;29078;41.932;25.554;2022-12-18T04:54:03;100236.03;;;11.47;81.42
43488;BME280;29078;41.932;25.554;2022-12-18T04:56:30;100376.38;;;12.35;81.87
43488;BME280;29078;41.932;25.554;2022-12-18T04:58:55;100333.09;;;12.03;81.85
43488;BME280;29078;41.932;25.554;2022-12-18T05:01:21;100302.31;;;11.86;81.59
43488;BME280;29078;41.932;25.554;2022-12-18T05:03:47;100381.19;;;12.31;82.02
43488;BME280;29078;41.932;25.554;2022-12-18T05:06:12;100332.09;;;11.96;82.14
43488;BME280;29078;41.932;25.554;2022-12-18T05:08:38;100405.66;;;12.33;82.27
43488;BME280;29078;41.932;25.554;2022-12-18T05:13:30;100395.25;;;12.32;82.00
43488;BME280;29078;41.932;25.554;2022-12-18T05:15:56;100402.03;;;12.34;82.06
43488;BME280;29078;41.932;25.554;2022-12-18T05:18:23;100395.72;;;12.35;82.14
43488;BME280;29078;41.932;25.554;2022-12-18T05:20:49;100346.97;;;12.05;81.94
43488;BME280;29078;41.932;25.554;2022-12-18T05:23:15;100406.16;;;12.37;82.24
43488;BME280;29078;41.932;25.554;2022-12-18T05:25:40;100339.53;;;12.01;81.84
43488;BME280;29078;41.932;25.554;2022-12-18T05:28:05;100380.69;;;12.20;82.38
43488;BME280;29078;41.932;25.554;2022-12-18T05:30:31;100303.16;;;11.78;81.80
43488;BME280;29078;41.932;25.554;2022-12-18T05:32:56;100383.84;;;12.15;82.05
43488;BME280;29078;41.932;25.554;2022-12-18T05:35:21;100388.00;;;12.09;82.20
43488;BME280;29078;41.932;25.554;2022-12-18T05:37:47;100334.56;;;11.82;82.22
43488;BME280;29078;41.932;25.554;2022-12-18T05:40:12;100354.94;;;11.89;82.27
43488;BME280;29078;41.932;25.554;2022-12-18T05:42:38;100363.69;;;11.98;82.21
43488;BME280;29078;41.932;25.554;2022-12-18T05:45:04;100354.78;;;11.91;82.34
43488;BME280;29078;41.932;25.554;2022-12-18T05:47:30;100372.78;;;11.95;82.40
43488;BME280;29078;41.932;25.554;2022-12-18T05:49:55;100395.78;;;12.03;82.09
43488;BME280;29078;41.932;25.554;2022-12-18T05:52:21;100454.16;;;12.34;82.24
43488;BME280;29078;41.932;25.554;2022-12-18T05:54:46;100414.63;;;12.16;82.26
43488;BME280;29078;41.932;25.554;2022-12-18T05:57:12;100368.47;;;11.86;82.17
43488;BME280;29078;41.932;25.554;2022-12-18T05:59:37;100438.94;;;12.28;82.43
43488;BME280;29078;41.932;25.554;2022-12-18T06:02:03;100420.41;;;12.20;82.33
43488;BME280;29078;41.932;25.554;2022-12-18T06:04:28;100416.94;;;12.19;82.42
43488;BME280;29078;41.932;25.554;2022-12-18T06:06:54;100393.63;;;12.06;82.21
43488;BME280;29078;41.932;25.554;2022-12-18T06:09:19;100466.72;;;12.48;82.11
43488;BME280;29078;41.932;25.554;2022-12-18T06:11:45;100467.56;;;12.49;82.18
43488;BME280;29078;41.932;25.554;2022-12-18T06:14:10;100451.50;;;12.34;81.65
43488;BME280;29078;41.932;25.554;2022-12-18T06:16:36;100479.63;;;12.51;81.65
43488;BME280;29078;41.932;25.554;2022-12-18T06:19:03;100478.47;;;12.54;81.30
43488;BME280;29078;41.932;25.554;2022-12-18T06:21:29;100488.91;;;12.55;81.28
43488;BME280;29078;41.932;25.554;2022-12-18T06:23:55;100463.44;;;12.38;81.14
43488;BME280;29078;41.932;25.554;2022-12-18T06:26:21;100436.31;;;12.20;81.14
43488;BME280;29078;41.932;25.554;2022-12-18T06:28:47;100496.69;;;12.57;80.92
43488;BME280;29078;41.932;25.554;2022-12-18T06:31:12;100468.22;;;12.34;80.69
43488;BME280;29078;41.932;25.554;2022-12-18T06:33:38;100493.72;;;12.44;80.68
43488;BME280;29078;41.932;25.554;2022-12-18T06:36:07;100514.72;;;12.53;80.34
43488;BME280;29078;41.932;25.554;2022-12-18T06:38:35;100521.69;;;12.54;80.32
43488;BME280;29078;41.932;25.554;2022-12-18T06:41:00;100527.97;;;12.53;79.97
43488;BME280;29078;41.932;25.554;2022-12-18T06:43:26;100532.44;;;12.53;79.83
43488;BME280;29078;41.932;25.554;2022-12-18T06:45:58;100451.34;;;11.95;79.34
43488;BME280;29078;41.932;25.554;2022-12-18T06:48:23;100539.72;;;12.51;79.10
43488;BME280;29078;41.932;25.554;2022-12-18T06:50:49;100516.38;;;12.30;79.04
43488;BME280;29078;41.932;25.554;2022-12-18T06:53:14;100538.72;;;12.35;78.75
43488;BME280;29078;41.932;25.554;2022-12-18T06:55:40;100475.50;;;12.00;78.52
43488;BME280;29078;41.932;25.554;2022-12-18T06:58:05;100560.09;;;12.42;77.93
43488;BME280;29078;41.932;25.554;2022-12-18T07:00:31;100522.66;;;12.13;77.73
43488;BME280;29078;41.932;25.554;2022-12-18T07:02:56;100488.53;;;11.85;77.36
43488;BME280;29078;41.932;25.554;2022-12-18T07:05:22;100574.66;;;12.38;76.95
43488;BME280;29078;41.932;25.554;2022-12-18T07:07:48;100521.34;;;12.00;76.15
43488;BME280;29078;41.932;25.554;2022-12-18T07:10:13;100580.09;;;12.28;76.20
43488;BME280;29078;41.932;25.554;2022-12-18T07:12:38;100596.81;;;12.29;75.30
43488;BME280;29078;41.932;25.554;2022-12-18T07:15:04;100569.81;;;12.09;75.12
43488;BME280;29078;41.932;25.554;2022-12-18T07:17:30;100524.88;;;11.75;74.47
43488;BME280;29078;41.932;25.554;2022-12-18T07:19:55;100517.03;;;11.57;74.02
43488;BME280;29078;41.932;25.554;2022-12-18T07:22:21;100548.22;;;11.80;74.37
43488;BME280;29078;41.932;25.554;2022-12-18T07:24:50;100556.06;;;11.89;74.09
43488;BME280;29078;41.932;25.554;2022-12-18T07:27:15;100521.03;;;11.69;73.97
43488;BME280;29078;41.932;25.554;2022-12-18T07:29:40;100529.50;;;11.73;73.79
43488;BME280;29078;41.932;25.554;2022-12-18T07:32:06;100614.03;;;12.25;73.67
43488;BME280;29078;41.932;25.554;2022-12-18T07:34:32;100626.59;;;12.23;73.62
43488;BME280;29078;41.932;25.554;2022-12-18T07:36:57;100610.53;;;12.16;73.72
43488;BME280;29078;41.932;25.554;2022-12-18T07:39:23;100613.19;;;12.16;73.59
43488;BME280;29078;41.932;25.554;2022-12-18T07:41:48;100586.00;;;11.90;73.74
43488;BME280;29078;41.932;25.554;2022-12-18T07:44:34;100562.34;;;11.62;73.56
43488;BME280;29078;41.932;25.554;2022-12-18T07:46:59;100529.88;;;11.44;73.54
43488;BME280;29078;41.932;25.554;2022-12-18T07:49:24;100529.88;;;11.44;74.03
43488;BME280;29078;41.932;25.554;2022-12-18T07:51:50;100499.41;;;11.24;73.81
43488;BME280;29078;41.932;25.554;2022-12-18T07:54:15;100558.84;;;11.54;73.81
43488;BME280;29078;41.932;25.554;2022-12-18T07:56:41;100548.06;;;11.47;73.03
43488;BME280;29078;41.932;25.554;2022-12-18T07:59:06;100657.34;;;12.07;73.56
43488;BME280;29078;41.932;25.554;2022-12-18T08:01:33;100593.44;;;11.60;73.45
43488;BME280;29078;41.932;25.554;2022-12-18T08:03:58;100644.03;;;11.91;73.46
43488;BME280;29078;41.932;25.554;2022-12-18T08:06:24;100487.50;;;10.94;73.35
43488;BME280;29078;41.932;25.554;2022-12-18T08:08:51;100604.63;;;11.54;73.52
43488;BME280;29078;41.932;25.554;2022-12-18T08:11:17;100612.28;;;11.65;73.47
43488;BME280;29078;41.932;25.554;2022-12-18T08:13:42;100639.00;;;11.80;73.26
43488;BME280;29078;41.932;25.554;2022-12-18T08:16:08;100612.56;;;11.54;73.07
43488;BME280;29078;41.932;25.554;2022-12-18T08:18:35;100678.31;;;12.01;73.00
43488;BME280;29078;41.932;25.554;2022-12-18T08:21:17;100657.97;;;11.75;73.18
43488;BME280;29078;41.932;25.554;2022-12-18T08:23:44;100665.31;;;11.82;73.31
43488;BME280;29078;41.932;25.554;2022-12-18T08:26:11;100687.06;;;11.93;72.61
43488;BME280;29078;41.932;25.554;2022-12-18T08:28:36;100696.97;;;11.91;72.76
43488;BME280;29078;41.932;25.554;2022-12-18T08:31:02;100702.94;;;11.93;72.57
43488;BME280;29078;41.932;25.554;2022-12-18T08:33:27;100582.13;;;11.16;72.56
43488;BME280;29078;41.932;25.554;2022-12-18T08:35:53;100648.16;;;11.60;72.88
43488;BME280;29078;41.932;25.554;2022-12-18T08:38:18;100620.13;;;11.41;72.28
43488;BME280;29078;41.932;25.554;2022-12-18T08:40:44;100629.84;;;11.40;71.86
43488;BME280;29078;41.932;25.554;2022-12-18T08:43:10;100643.75;;;11.42;71.91
43488;BME280;29078;41.932;25.554;2022-12-18T08:45:54;100649.41;;;11.48;72.41
43488;BME280;29078;41.932;25.554;2022-12-18T08:48:20;100645.09;;;11.46;72.54
43488;BME280;29078;41.932;25.554;2022-12-18T08:50:56;100691.84;;;11.72;71.67
43488;BME280;29078;41.932;25.554;2022-12-18T08:53:22;100624.63;;;11.23;72.09
43488;BME280;29078;41.932;25.554;2022-12-18T08:55:49;100654.19;;;11.44;72.49
43488;BME280;29078;41.932;25.554;2022-12-18T08:58:14;100650.34;;;11.38;72.27
43488;BME280;29078;41.932;25.554;2022-12-18T09:00:40;100658.69;;;11.52;71.96
43488;BME280;29078;41.932;25.554;2022-12-18T09:03:16;100683.25;;;11.70;72.24
43488;BME280;29078;41.932;25.554;2022-12-18T09:05:43;100662.78;;;11.46;72.56
43488;BME280;29078;41.932;25.554;2022-12-18T09:08:08;100647.53;;;11.40;71.88
43488;BME280;29078;41.932;25.554;2022-12-18T09:10:34;100648.06;;;11.43;72.20
43488;BME280;29078;41.932;25.554;2022-12-18T09:13:06;100697.78;;;11.66;72.20
43488;BME280;29078;41.932;25.554;2022-12-18T09:15:31;100690.50;;;11.68;72.51
43488;BME280;29078;41.932;25.554;2022-12-18T09:17:56;100678.22;;;11.59;72.08
43488;BME280;29078;41.932;25.554;2022-12-18T09:20:22;100705.31;;;11.78;72.04
43488;BME280;29078;41.932;25.554;2022-12-18T09:22:47;100706.00;;;11.81;71.92
43488;BME280;29078;41.932;25.554;2022-12-18T09:25:13;100680.72;;;11.60;72.22
43488;BME280;29078;41.932;25.554;2022-12-18T09:27:38;100617.69;;;11.22;71.97
43488;BME280;29078;41.932;25.554;2022-12-18T09:30:05;100689.47;;;11.61;71.61
43488;BME280;29078;41.932;25.554;2022-12-18T09:32:30;100636.03;;;11.23;71.73
43488;BME280;29078;41.932;25.554;2022-12-18T09:34:56;100654.50;;;11.41;71.44
43488;BME280;29078;41.932;25.554;2022-12-18T09:37:21;100574.34;;;10.89;71.01
43488;BME280;29078;41.932;25.554;2022-12-18T09:39:46;100714.69;;;11.73;71.29
43488;BME280;29078;41.932;25.554;2022-12-18T09:42:20;100705.09;;;11.72;70.45
43488;BME280;29078;41.932;25.554;2022-12-18T09:44:53;100671.38;;;11.48;70.56
43488;BME280;29078;41.932;25.554;2022-12-18T09:47:25;100719.66;;;11.76;70.91
43488;BME280;29078;41.932;25.554;2022-12-18T09:49:57;100723.97;;;11.77;70.54
43488;BME280;29078;41.932;25.554;2022-12-18T09:52:27;100709.06;;;11.76;70.89
43488;BME280;29078;41.932;25.554;2022-12-18T09:57:31;100697.63;;;11.67;70.37
43488;BME280;29078;41.932;25.554;2022-12-18T10:00:04;100714.84;;;11.71;70.60
43488;BME280;29078;41.932;25.554;2022-12-18T10:02:32;100703.53;;;11.61;70.53
43488;BME280;29078;41.932;25.554;2022-12-18T10:05:12;100650.13;;;11.32;70.94
43488;BME280;29078;41.932;25.554;2022-12-18T10:08:10;100721.94;;;11.71;71.11
43488;BME280;29078;41.932;25.554;2022-12-18T10:11:01;100721.78;;;11.72;71.65
43488;BME280;29078;41.932;25.554;2022-12-18T10:13:43;100637.69;;;11.24;71.74
43488;BME280;29078;41.932;25.554;2022-12-18T10:19:26;100664.25;;;11.40;72.27
43488;BME280;29078;41.932;25.554;2022-12-18T10:22:10;100720.38;;;11.78;72.63
43488;BME280;29078;41.932;25.554;2022-12-18T10:27:30;100715.34;;;11.75;73.04
43488;BME280;29078;41.932;25.554;2022-12-18T10:29:56;100653.97;;;11.37;73.76
43488;BME280;29078;41.932;25.554;2022-12-18T10:32:26;100654.59;;;11.31;73.62
43488;BME280;29078;41.932;25.554;2022-12-18T10:34:56;100676.63;;;11.40;74.01
43488;BME280;29078;41.932;25.554;2022-12-18T10:37:27;100599.81;;;10.98;74.00
43488;BME280;29078;41.932;25.554;2022-12-18T10:40:13;100664.84;;;11.34;74.18
43488;BME280;29078;41.932;25.554;2022-12-18T10:42:40;100715.41;;;11.57;74.64
43488;BME280;29078;41.932;25.554;2022-12-18T10:45:15;100650.44;;;11.29;74.62
43488;BME280;29078;41.932;25.554;2022-12-18T10:47:50;100672.84;;;11.42;75.26
43488;BME280;29078;41.932;25.554;2022-12-18T10:50:29;100721.13;;;11.70;75.02
43488;BME280;29078;41.932;25.554;2022-12-18T10:53:03;100731.03;;;11.68;75.62
43488;BME280;29078;41.932;25.554;2022-12-18T10:55:35;100740.63;;;11.69;75.62
43488;BME280;29078;41.932;25.554;2022-12-18T10:58:24;100713.09;;;11.54;75.78
43488;BME280;29078;41.932;25.554;2022-12-18T11:01:13;100731.84;;;11.69;75.71
43488;BME280;29078;41.932;25.554;2022-12-18T11:03:40;100738.81;;;11.70;76.11
43488;BME280;29078;41.932;25.554;2022-12-18T11:08:36;100651.97;;;11.13;75.84
43488;BME280;29078;41.932;25.554;2022-12-18T11:11:02;100744.78;;;11.72;76.48
43488;BME280;29078;41.932;25.554;2022-12-18T11:13:29;100662.47;;;11.23;76.55
43488;BME280;29078;41.932;25.554;2022-12-18T11:15:56;100722.31;;;11.50;76.62
43488;BME280;29078;41.932;25.554;2022-12-18T11:20:52;100759.97;;;11.70;76.69
43488;BME280;29078;41.932;25.554;2022-12-18T11:23:20;100762.09;;;11.66;76.93
43488;BME280;29078;41.932;25.554;2022-12-18T11:25:53;100762.25;;;11.65;77.48
43488;BME280;29078;41.932;25.554;2022-12-18T11:28:39;100765.38;;;11.60;77.28
43488;BME280;29078;41.932;25.554;2022-12-18T11:31:22;100757.59;;;11.59;77.53
43488;BME280;29078;41.932;25.554;2022-12-18T11:36:23;100710.44;;;11.28;77.90
43488;BME280;29078;41.932;25.554;2022-12-18T11:38:49;100693.16;;;11.16;77.83
43488;BME280;29078;41.932;25.554;2022-12-18T11:41:34;100764.00;;;11.56;78.20
43488;BME280;29078;41.932;25.554;2022-12-18T11:44:26;100682.13;;;11.03;77.79
43488;BME280;29078;41.932;25.554;2022-12-18T11:46:53;100760.94;;;11.43;78.25
43488;BME280;29078;41.932;25.554;2022-12-18T11:49:32;100700.63;;;11.03;77.95
43488;BME280;29078;41.932;25.554;2022-12-18T11:52:18;100712.09;;;11.11;77.81
43488;BME280;29078;41.932;25.554;2022-12-18T11:54:45;100695.47;;;11.01;77.60
43488;BME280;29078;41.932;25.554;2022-12-18T11:57:31;100707.63;;;11.12;77.48
43488;BME280;29078;41.932;25.554;2022-12-18T12:00:13;100744.75;;;11.46;77.84
43488;BME280;29078;41.932;25.554;2022-12-18T12:08:14;100694.06;;;10.89;78.08
43488;BME280;29078;41.932;25.554;2022-12-18T12:13:43;100753.13;;;11.16;78.27
43488;BME280;29078;41.932;25.554;2022-12-18T12:16:24;100768.75;;;11.27;78.54
43488;BME280;29078;41.932;25.554;2022-12-18T12:19:15;100719.03;;;10.95;78.12
43488;BME280;29078;41.932;25.554;2022-12-18T12:21:55;100770.56;;;11.26;77.93
43488;BME280;29078;41.932;25.554;2022-12-18T12:24:38;100774.03;;;11.27;78.19
43488;BME280;29078;41.932;25.554;2022-12-18T12:40:06;100721.47;;;10.88;77.76
43488;BME280;29078;41.932;25.554;2022-12-18T12:42:38;100740.56;;;10.82;77.56
43488;BME280;29078;41.932;25.554;2022-12-18T12:45:33;100795.19;;;11.27;77.75
43488;BME280;29078;41.932;25.554;2022-12-18T12:48:02;100787.59;;;11.14;77.24
43488;BME280;29078;41.932;25.554;2022-12-18T12:50:32;100805.16;;;11.15;77.28
43488;BME280;29078;41.932;25.554;2022-12-18T12:53:00;100772.94;;;11.02;76.87
43488;BME280;29078;41.932;25.554;2022-12-18T12:55:27;100807.50;;;11.18;76.64
43488;BME280;29078;41.932;25.554;2022-12-18T13:00:19;100678.75;;;10.30;76.38
43488;BME280;29078;41.932;25.554;2022-12-18T13:03:07;100815.78;;;11.05;74.66
43488;BME280;29078;41.932;25.554;2022-12-18T13:05:48;100824.81;;;10.85;74.17
43488;BME280;29078;41.932;25.554;2022-12-18T13:08:30;100821.56;;;10.91;74.55
43488;BME280;29078;41.932;25.554;2022-12-18T13:10:57;100827.31;;;10.87;74.18
43488;BME280;29078;41.932;25.554;2022-12-18T13:13:49;100800.84;;;10.69;74.21
43488;BME280;29078;41.932;25.554;2022-12-18T13:16:19;100845.34;;;10.91;74.21
43488;BME280;29078;41.932;25.554;2022-12-18T13:18:52;100795.91;;;10.56;74.15
43488;BME280;29078;41.932;25.554;2022-12-18T13:21:24;100851.84;;;10.97;74.26
43488;BME280;29078;41.932;25.554;2022-12-18T13:23:52;100864.09;;;10.98;73.80
43488;BME280;29078;41.932;25.554;2022-12-18T13:31:13;100789.56;;;10.49;73.84
43488;BME280;29078;41.932;25.554;2022-12-18T13:33:43;100871.03;;;10.99;74.09
43488;BME280;29078;41.932;25.554;2022-12-18T13:44:39;100876.22;;;10.91;74.62
43488;BME280;29078;41.932;25.554;2022-12-18T13:47:28;100816.66;;;10.51;74.77
43488;BME280;29078;41.932;25.554;2022-12-18T13:49:57;100779.22;;;10.28;75.12
43488;BME280;29078;41.932;25.554;2022-12-18T13:52:28;100874.19;;;10.85;74.64
43488;BME280;29078;41.932;25.554;2022-12-18T13:54:59;100879.91;;;10.80;74.66
43488;BME280;29078;41.932;25.554;2022-12-18T13:57:30;100872.13;;;10.78;75.20
43488;BME280;29078;41.932;25.554;2022-12-18T13:59:59;100803.38;;;10.33;75.24
43488;BME280;29078;41.932;25.554;2022-12-18T14:02:44;100890.50;;;10.70;75.44
43488;BME280;29078;41.932;25.554;2022-12-18T14:07:53;100896.47;;;10.72;75.28
43488;BME280;29078;41.932;25.554;2022-12-18T14:10:20;100898.16;;;10.73;75.07
43488;BME280;29078;41.932;25.554;2022-12-18T14:12:50;100892.31;;;10.70;75.97
43488;BME280;29078;41.932;25.554;2022-12-18T14:18:25;100908.91;;;10.62;75.15
43488;BME280;29078;41.932;25.554;2022-12-18T14:20:54;100848.84;;;10.08;75.23
43488;BME280;29078;41.932;25.554;2022-12-18T14:23:41;100854.09;;;10.17;75.92
43488;BME280;29078;41.932;25.554;2022-12-18T14:26:26;100926.97;;;10.57;75.24
43488;BME280;29078;41.932;25.554;2022-12-18T14:28:58;100894.25;;;10.40;75.31
43488;BME280;29078;41.932;25.554;2022-12-18T14:31:25;100878.41;;;10.31;75.38